createdAt,value
2018-09-23T00:00:16.854Z,1013.56
2018-09-23T00:01:16.823Z,1013.58
2018-09-23T00:02:16.752Z,1013.58
2018-09-23T00:03:17.679Z,1013.58
2018-09-23T00:04:17.675Z,1013.61
2018-09-23T00:05:16.739Z,1013.59
2018-09-23T00:06:17.178Z,1013.60
2018-09-23T00:07:17.173Z,1013.59
2018-09-23T00:08:17.182Z,1013.59
2018-09-23T00:09:17.179Z,1013.59
2018-09-23T00:10:16.797Z,1013.57
2018-09-23T00:11:17.180Z,1013.62
2018-09-23T00:12:17.176Z,1013.58
2018-09-23T00:13:17.172Z,1013.56
2018-09-23T00:14:17.176Z,1013.52
2018-09-23T00:15:16.727Z,1013.52
2018-09-23T00:16:16.733Z,1013.52
2018-09-23T00:17:17.176Z,1013.52
2018-09-23T00:18:17.174Z,1013.54
2018-09-23T00:19:17.175Z,1013.55
2018-09-23T00:20:17.175Z,1013.56
2018-09-23T00:21:16.784Z,1013.54
2018-09-23T00:22:17.236Z,1013.58
2018-09-23T00:23:16.676Z,1013.58
2018-09-23T00:24:16.677Z,1013.52
2018-09-23T00:25:16.679Z,1013.51
2018-09-23T00:26:16.234Z,1013.49
2018-09-23T00:27:16.243Z,1013.49
2018-09-23T00:28:16.008Z,1013.45
2018-09-23T00:29:16.678Z,1013.49
2018-09-23T00:30:16.676Z,1013.50
2018-09-23T00:31:16.680Z,1013.52
2018-09-23T00:32:16.233Z,1013.49
2018-09-23T00:33:16.676Z,1013.47
2018-09-23T00:34:16.687Z,1013.39
2018-09-23T00:35:16.676Z,1013.45
2018-09-23T00:36:16.230Z,1013.43
2018-09-23T00:37:16.680Z,1013.45
2018-09-23T00:38:16.234Z,1013.46
2018-09-23T00:39:16.685Z,1013.43
2018-09-23T00:40:16.182Z,1013.43
2018-09-23T00:41:15.734Z,1013.44
2018-09-23T00:42:16.186Z,1013.41
2018-09-23T00:43:15.735Z,1013.42
2018-09-23T00:44:16.186Z,1013.43
2018-09-23T00:45:16.178Z,1013.47
2018-09-23T00:46:16.207Z,1013.47
2018-09-23T00:47:16.180Z,1013.46
2018-09-23T00:48:15.737Z,1013.46
2018-09-23T00:49:16.219Z,1013.47
2018-09-23T00:50:16.180Z,1013.48
2018-09-23T00:51:15.733Z,1013.43
2018-09-23T00:52:15.329Z,1013.40
2018-09-23T00:53:15.349Z,1013.41
2018-09-23T00:54:15.272Z,1013.35
2018-09-23T00:55:16.179Z,1013.39
2018-09-23T00:56:16.187Z,1013.39
2018-09-23T00:57:16.188Z,1013.42
2018-09-23T00:58:15.238Z,1013.41
2018-09-23T00:59:15.236Z,1013.38
2018-09-23T01:00:15.680Z,1013.37
2018-09-23T01:01:15.686Z,1013.38
2018-09-23T01:02:15.692Z,1013.33
2018-09-23T01:03:15.258Z,1013.39
2018-09-23T01:04:15.684Z,1013.33
2018-09-23T01:05:15.681Z,1013.36
2018-09-23T01:06:15.684Z,1013.35
2018-09-23T01:07:15.699Z,1013.32
2018-09-23T01:08:15.271Z,1013.30
2018-09-23T01:09:15.239Z,1013.35
2018-09-23T01:10:15.685Z,1013.32
2018-09-23T01:11:15.690Z,1013.32
2018-09-23T01:12:15.696Z,1013.33
2018-09-23T01:13:15.236Z,1013.32
2018-09-23T01:14:15.245Z,1013.23
2018-09-23T01:15:15.187Z,1013.23
2018-09-23T01:16:15.189Z,1013.23
2018-09-23T01:17:15.184Z,1013.18
2018-09-23T01:18:15.184Z,1013.16
2018-09-23T01:19:14.737Z,1013.16
2018-09-23T01:20:15.185Z,1013.16
2018-09-23T01:21:15.188Z,1013.14
2018-09-23T01:22:15.188Z,1013.13
2018-09-23T01:23:15.189Z,1013.09
2018-09-23T01:24:14.734Z,1013.12
2018-09-23T01:25:14.746Z,1013.13
2018-09-23T01:26:15.217Z,1013.16
2018-09-23T01:27:15.187Z,1013.14
2018-09-23T01:28:14.327Z,1013.19
2018-09-23T01:29:15.188Z,1013.15
2018-09-23T01:30:14.750Z,1013.15
2018-09-23T01:31:15.186Z,1013.15
2018-09-23T01:32:15.186Z,1013.12
2018-09-23T01:33:14.749Z,1013.14
2018-09-23T01:34:14.721Z,1013.14
2018-09-23T01:35:14.243Z,1013.10
2018-09-23T01:36:14.690Z,1013.09
2018-09-23T01:37:14.688Z,1013.05
2018-09-23T01:38:14.695Z,1012.98
2018-09-23T01:39:14.748Z,1012.96
2018-09-23T01:40:14.687Z,1012.95
2018-09-23T01:41:14.694Z,1013.02
2018-09-23T01:42:14.687Z,1012.99
2018-09-23T01:43:14.693Z,1012.97
2018-09-23T01:44:14.241Z,1013.00
2018-09-23T01:45:14.253Z,1013.00
2018-09-23T01:46:14.686Z,1013.00
2018-09-23T01:47:14.698Z,1013.02
2018-09-23T01:48:13.741Z,1012.94
2018-09-23T01:49:13.746Z,1012.94
2018-09-23T01:50:16.189Z,1012.95
2018-09-23T01:51:14.188Z,1012.97
2018-09-23T01:52:14.193Z,1012.94
2018-09-23T01:53:15.098Z,1012.92
2018-09-23T01:54:13.747Z,1012.94
2018-09-23T01:55:14.196Z,1012.93
2018-09-23T01:56:13.752Z,1012.94
2018-09-23T01:57:14.197Z,1012.97
2018-09-23T01:58:14.194Z,1012.95
2018-09-23T01:59:14.192Z,1012.94
2018-09-23T02:00:13.752Z,1012.95
2018-09-23T02:01:13.355Z,1012.95
2018-09-23T02:02:14.198Z,1012.92
2018-09-23T02:03:14.227Z,1012.95
2018-09-23T02:04:16.191Z,1012.94
2018-09-23T02:05:13.751Z,1012.90
2018-09-23T02:06:14.193Z,1012.91
2018-09-23T02:07:13.695Z,1012.95
2018-09-23T02:08:13.693Z,1012.95
2018-09-23T02:09:13.704Z,1012.98
2018-09-23T02:10:13.247Z,1012.97
2018-09-23T02:11:40.706Z,1012.97
2018-09-23T02:12:13.090Z,1012.93
2018-09-23T02:13:13.247Z,1012.94
2018-09-23T02:14:13.695Z,1012.94
2018-09-23T02:15:13.240Z,1012.93
2018-09-23T02:16:13.691Z,1012.94
2018-09-23T02:17:13.700Z,1012.99
2018-09-23T02:18:13.697Z,1012.95
2018-09-23T02:19:13.315Z,1012.92
2018-09-23T02:20:13.241Z,1012.93
2018-09-23T02:21:13.741Z,1012.94
2018-09-23T02:22:13.266Z,1012.97
2018-09-23T02:23:13.696Z,1012.93
2018-09-23T02:24:13.195Z,1012.90
2018-09-23T02:25:12.753Z,1012.89
2018-09-23T02:26:13.195Z,1012.87
2018-09-23T02:27:13.198Z,1012.88
2018-09-23T02:28:13.200Z,1012.87
2018-09-23T02:29:12.551Z,1012.82
2018-09-23T02:30:12.752Z,1012.85
2018-09-23T02:31:13.200Z,1012.83
2018-09-23T02:32:13.198Z,1012.82
2018-09-23T02:33:13.200Z,1012.83
2018-09-23T02:34:13.204Z,1012.81
2018-09-23T02:35:12.755Z,1012.79
2018-09-23T02:36:13.198Z,1012.75
2018-09-23T02:37:13.198Z,1012.71
2018-09-23T02:38:12.749Z,1012.67
2018-09-23T02:39:13.209Z,1012.65
2018-09-23T02:40:13.197Z,1012.66
2018-09-23T02:41:12.264Z,1012.72
2018-09-23T02:42:12.700Z,1012.65
2018-09-23T02:43:12.699Z,1012.70
2018-09-23T02:44:12.697Z,1012.70
2018-09-23T02:45:12.697Z,1012.68
2018-09-23T02:46:12.106Z,1012.73
2018-09-23T02:47:12.708Z,1012.67
2018-09-23T02:48:12.711Z,1012.67
2018-09-23T02:49:12.254Z,1012.67
2018-09-23T02:50:12.260Z,1012.62
2018-09-23T02:51:12.275Z,1012.66
2018-09-23T02:52:12.701Z,1012.66
2018-09-23T02:53:12.703Z,1012.68
2018-09-23T02:54:12.699Z,1012.71
2018-09-23T02:55:12.699Z,1012.70
2018-09-23T02:56:12.259Z,1012.65
2018-09-23T02:57:12.706Z,1012.61
2018-09-23T02:58:12.704Z,1012.55
2018-09-23T02:59:11.807Z,1012.49
2018-09-23T03:00:11.800Z,1012.46
2018-09-23T03:01:12.202Z,1012.37
2018-09-23T03:02:12.204Z,1012.42
2018-09-23T03:03:11.571Z,1012.45
2018-09-23T03:04:12.210Z,1012.44
2018-09-23T03:05:11.749Z,1012.43
2018-09-23T03:06:12.203Z,1012.40
2018-09-23T03:07:11.767Z,1012.42
2018-09-23T03:08:12.201Z,1012.46
2018-09-23T03:09:12.202Z,1012.45
2018-09-23T03:10:11.367Z,1012.48
2018-09-23T03:11:12.222Z,1012.42
2018-09-23T03:12:11.755Z,1012.46
2018-09-23T03:13:11.292Z,1012.44
2018-09-23T03:14:12.212Z,1012.42
2018-09-23T03:15:12.203Z,1012.40
2018-09-23T03:16:11.714Z,1012.42
2018-09-23T03:17:11.266Z,1012.46
2018-09-23T03:18:11.706Z,1012.46
2018-09-23T03:19:11.705Z,1012.55
2018-09-23T03:20:11.743Z,1012.56
2018-09-23T03:21:11.706Z,1012.52
2018-09-23T03:22:11.259Z,1012.49
2018-09-23T03:23:11.714Z,1012.55
2018-09-23T03:24:11.707Z,1012.52
2018-09-23T03:25:11.708Z,1012.51
2018-09-23T03:26:11.710Z,1012.43
2018-09-23T03:27:11.261Z,1012.41
2018-09-23T03:28:11.261Z,1012.37
2018-09-23T03:29:11.707Z,1012.42
2018-09-23T03:30:11.764Z,1012.41
2018-09-23T03:31:10.761Z,1012.47
2018-09-23T03:32:11.261Z,1012.50
2018-09-23T03:33:11.209Z,1012.50
2018-09-23T03:34:10.817Z,1012.45
2018-09-23T03:35:11.210Z,1012.41
2018-09-23T03:36:11.204Z,1012.38
2018-09-23T03:37:10.764Z,1012.40
2018-09-23T03:38:11.114Z,1012.38
2018-09-23T03:39:11.211Z,1012.44
2018-09-23T03:40:11.271Z,1012.43
2018-09-23T03:41:11.211Z,1012.39
2018-09-23T03:42:10.765Z,1012.40
2018-09-23T03:43:11.232Z,1012.39
2018-09-23T03:44:11.208Z,1012.36
2018-09-23T03:45:10.765Z,1012.32
2018-09-23T03:46:11.207Z,1012.32
2018-09-23T03:47:11.208Z,1012.25
2018-09-23T03:48:10.777Z,1012.23
2018-09-23T03:49:11.213Z,1012.22
2018-09-23T03:50:10.264Z,1012.24
2018-09-23T03:51:10.756Z,1012.23
2018-09-23T03:52:10.711Z,1012.27
2018-09-23T03:53:10.709Z,1012.27
2018-09-23T03:54:10.263Z,1012.26
2018-09-23T03:55:10.093Z,1012.19
2018-09-23T03:56:10.709Z,1012.18
2018-09-23T03:57:10.716Z,1012.15
2018-09-23T03:58:10.753Z,1012.16
2018-09-23T03:59:10.714Z,1012.10
2018-09-23T04:00:10.292Z,1012.13
2018-09-23T04:01:10.757Z,1012.18
2018-09-23T04:02:09.856Z,1012.22
2018-09-23T04:03:10.712Z,1012.19
2018-09-23T04:04:10.273Z,1012.20
2018-09-23T04:05:10.712Z,1012.16
2018-09-23T04:06:10.710Z,1012.18
2018-09-23T04:07:10.218Z,1012.15
2018-09-23T04:08:10.212Z,1012.17
2018-09-23T04:09:09.764Z,1012.18
2018-09-23T04:10:09.658Z,1012.18
2018-09-23T04:11:10.211Z,1012.24
2018-09-23T04:12:09.641Z,1012.25
2018-09-23T04:13:10.214Z,1012.26
2018-09-23T04:14:10.211Z,1012.27
2018-09-23T04:15:09.769Z,1012.25
2018-09-23T04:16:10.225Z,1012.24
2018-09-23T04:17:10.215Z,1012.28
2018-09-23T04:18:10.213Z,1012.26
2018-09-23T04:19:10.213Z,1012.29
2018-09-23T04:20:09.772Z,1012.23
2018-09-23T04:21:10.222Z,1012.25
2018-09-23T04:22:10.216Z,1012.26
2018-09-23T04:23:10.213Z,1012.26
2018-09-23T04:24:09.720Z,1012.26
2018-09-23T04:25:09.276Z,1012.28
2018-09-23T04:26:09.722Z,1012.31
2018-09-23T04:27:09.311Z,1012.34
2018-09-23T04:28:09.721Z,1012.33
2018-09-23T04:29:09.715Z,1012.30
2018-09-23T04:30:11.885Z,1012.30
2018-09-23T04:31:09.716Z,1012.29
2018-09-23T04:32:09.267Z,1012.27
2018-09-23T04:33:09.714Z,1012.23
2018-09-23T04:34:09.720Z,1012.27
2018-09-23T04:35:09.721Z,1012.22
2018-09-23T04:36:09.282Z,1012.22
2018-09-23T04:37:09.717Z,1012.19
2018-09-23T04:38:09.716Z,1012.23
2018-09-23T04:39:09.714Z,1012.20
2018-09-23T04:40:09.717Z,1012.23
2018-09-23T04:41:08.785Z,1012.21
2018-09-23T04:42:09.217Z,1012.21
2018-09-23T04:43:09.223Z,1012.16
2018-09-23T04:44:09.227Z,1012.15
2018-09-23T04:45:09.219Z,1012.14
2018-09-23T04:46:08.782Z,1012.15
2018-09-23T04:47:09.225Z,1012.13
2018-09-23T04:48:09.218Z,1012.14
2018-09-23T04:49:08.486Z,1012.12
2018-09-23T04:50:09.222Z,1012.08
2018-09-23T04:51:08.864Z,1012.07
2018-09-23T04:52:09.234Z,1012.06
2018-09-23T04:53:09.218Z,1012.04
2018-09-23T04:54:09.222Z,1012.05
2018-09-23T04:55:09.225Z,1012.02
2018-09-23T04:56:08.773Z,1012.01
2018-09-23T04:57:09.220Z,1011.98
2018-09-23T04:58:08.217Z,1011.94
2018-09-23T04:59:08.738Z,1011.95
2018-09-23T05:00:08.748Z,1011.94
2018-09-23T05:01:08.379Z,1011.89
2018-09-23T05:02:08.720Z,1011.95
2018-09-23T05:03:08.739Z,1011.98
2018-09-23T05:04:08.052Z,1012.04
2018-09-23T05:05:08.725Z,1011.98
2018-09-23T05:06:08.274Z,1011.95
2018-09-23T05:07:08.748Z,1011.96
2018-09-23T05:08:08.281Z,1011.99
2018-09-23T05:09:08.720Z,1011.96
2018-09-23T05:10:07.871Z,1011.93
2018-09-23T05:11:08.722Z,1011.89
2018-09-23T05:12:08.274Z,1011.91
2018-09-23T05:13:08.723Z,1011.93
2018-09-23T05:14:07.797Z,1011.90
2018-09-23T05:15:08.723Z,1011.92
2018-09-23T05:16:08.222Z,1011.91
2018-09-23T05:17:07.785Z,1011.90
2018-09-23T05:18:08.222Z,1011.92
2018-09-23T05:19:07.797Z,1011.91
2018-09-23T05:20:08.220Z,1011.94
2018-09-23T05:21:08.226Z,1011.90
2018-09-23T05:22:08.223Z,1011.89
2018-09-23T05:23:08.237Z,1011.89
2018-09-23T05:24:07.777Z,1011.90
2018-09-23T05:25:08.224Z,1011.85
2018-09-23T05:26:08.222Z,1011.85
2018-09-23T05:27:08.230Z,1011.82
2018-09-23T05:28:08.231Z,1011.81
2018-09-23T05:29:07.786Z,1011.79
2018-09-23T05:30:08.225Z,1011.77
2018-09-23T05:31:10.315Z,1011.77
2018-09-23T05:32:08.286Z,1011.75
2018-09-23T05:33:07.288Z,1011.76
2018-09-23T05:34:07.730Z,1011.74
2018-09-23T05:35:07.726Z,1011.75
2018-09-23T05:36:07.752Z,1011.74
2018-09-23T05:37:07.725Z,1011.72
2018-09-23T05:38:07.280Z,1011.75
2018-09-23T05:39:07.732Z,1011.74
2018-09-23T05:40:07.282Z,1011.77
2018-09-23T05:41:07.736Z,1011.79
2018-09-23T05:42:07.749Z,1011.77
2018-09-23T05:43:07.726Z,1011.71
2018-09-23T05:44:07.738Z,1011.73
2018-09-23T05:45:07.293Z,1011.74
2018-09-23T05:46:07.726Z,1011.71
2018-09-23T05:47:07.726Z,1011.71
2018-09-23T05:48:07.320Z,1011.72
2018-09-23T05:49:07.729Z,1011.66
2018-09-23T05:50:07.232Z,1011.65
2018-09-23T05:51:07.249Z,1011.59
2018-09-23T05:52:07.232Z,1011.53
2018-09-23T05:53:06.815Z,1011.54
2018-09-23T05:54:07.242Z,1011.46
2018-09-23T05:55:06.588Z,1011.49
2018-09-23T05:56:06.565Z,1011.50
2018-09-23T05:57:07.231Z,1011.46
2018-09-23T05:58:06.796Z,1011.55
2018-09-23T05:59:07.237Z,1011.52
2018-09-23T06:00:07.228Z,1011.54
2018-09-23T06:01:07.263Z,1011.58
2018-09-23T06:02:07.230Z,1011.58
2018-09-23T06:03:06.804Z,1011.53
2018-09-23T06:04:07.229Z,1011.52
2018-09-23T06:05:07.247Z,1011.48
2018-09-23T06:06:07.272Z,1011.48
2018-09-23T06:07:07.260Z,1011.47
2018-09-23T06:08:06.279Z,1011.47
2018-09-23T06:09:06.311Z,1011.50
2018-09-23T06:10:06.168Z,1011.56
2018-09-23T06:11:06.789Z,1011.57
2018-09-23T06:12:06.731Z,1011.60
2018-09-23T06:13:06.090Z,1011.60
2018-09-23T06:14:06.303Z,1011.56
2018-09-23T06:15:06.733Z,1011.53
2018-09-23T06:16:06.289Z,1011.51
2018-09-23T06:17:06.733Z,1011.52
2018-09-23T06:18:06.733Z,1011.56
2018-09-23T06:19:06.735Z,1011.61
2018-09-23T06:20:06.288Z,1011.57
2018-09-23T06:21:06.738Z,1011.56
2018-09-23T06:22:06.736Z,1011.54
2018-09-23T06:23:06.741Z,1011.55
2018-09-23T06:24:06.733Z,1011.56
2018-09-23T06:25:06.372Z,1011.62
2018-09-23T06:26:05.765Z,1011.63
2018-09-23T06:27:06.234Z,1011.61
2018-09-23T06:28:06.233Z,1011.64
2018-09-23T06:29:06.234Z,1011.72
2018-09-23T06:30:05.832Z,1011.71
2018-09-23T06:31:06.237Z,1011.69
2018-09-23T06:32:06.234Z,1011.73
2018-09-23T06:33:06.238Z,1011.74
2018-09-23T06:34:06.261Z,1011.83
2018-09-23T06:35:05.859Z,1011.90
2018-09-23T06:36:06.237Z,1011.98
2018-09-23T06:37:06.300Z,1011.99
2018-09-23T06:38:06.240Z,1012.04
2018-09-23T06:39:06.240Z,1012.00
2018-09-23T06:40:05.789Z,1012.00
2018-09-23T06:41:05.786Z,1011.99
2018-09-23T06:42:05.290Z,1011.90
2018-09-23T06:43:06.236Z,1011.88
2018-09-23T06:44:05.770Z,1011.85
2018-09-23T06:45:05.740Z,1011.83
2018-09-23T06:46:05.314Z,1011.77
2018-09-23T06:47:05.738Z,1011.73
2018-09-23T06:48:05.135Z,1011.70
2018-09-23T06:49:05.740Z,1011.66
2018-09-23T06:50:05.740Z,1011.65
2018-09-23T06:51:05.352Z,1011.64
2018-09-23T06:52:05.767Z,1011.63
2018-09-23T06:53:05.738Z,1011.59
2018-09-23T06:54:05.742Z,1011.63
2018-09-23T06:55:05.743Z,1011.65
2018-09-23T06:56:05.300Z,1011.71
2018-09-23T06:57:05.833Z,1011.74
2018-09-23T06:58:05.749Z,1011.78
2018-09-23T06:59:05.748Z,1011.75
2018-09-23T07:00:05.740Z,1011.78
2018-09-23T07:01:05.300Z,1011.75
2018-09-23T07:02:05.747Z,1011.76
2018-09-23T07:03:05.242Z,1011.74
2018-09-23T07:04:04.697Z,1011.74
2018-09-23T07:05:04.729Z,1011.73
2018-09-23T07:06:05.270Z,1011.75
2018-09-23T07:07:05.256Z,1011.81
2018-09-23T07:08:05.240Z,1011.83
2018-09-23T07:09:05.240Z,1011.83
2018-09-23T07:10:04.792Z,1011.81
2018-09-23T07:11:05.242Z,1011.78
2018-09-23T07:12:05.242Z,1011.70
2018-09-23T07:13:04.800Z,1011.66
2018-09-23T07:14:05.243Z,1011.64
2018-09-23T07:15:05.243Z,1011.65
2018-09-23T07:16:05.247Z,1011.66
2018-09-23T07:17:04.807Z,1011.65
2018-09-23T07:18:04.810Z,1011.67
2018-09-23T07:19:05.244Z,1011.71
2018-09-23T07:20:05.249Z,1011.69
2018-09-23T07:21:04.746Z,1011.66
2018-09-23T07:22:04.223Z,1011.59
2018-09-23T07:23:04.312Z,1011.54
2018-09-23T07:24:04.906Z,1011.51
2018-09-23T07:25:04.750Z,1011.54
2018-09-23T07:26:04.785Z,1011.54
2018-09-23T07:27:04.746Z,1011.61
2018-09-23T07:28:04.140Z,1011.60
2018-09-23T07:29:04.745Z,1011.62
2018-09-23T07:30:04.807Z,1011.65
2018-09-23T07:31:04.744Z,1011.64
2018-09-23T07:32:04.748Z,1011.62
2018-09-23T07:33:04.321Z,1011.63
2018-09-23T07:34:04.749Z,1011.61
2018-09-23T07:35:04.749Z,1011.64
2018-09-23T07:36:04.750Z,1011.63
2018-09-23T07:37:04.794Z,1011.66
2018-09-23T07:38:04.308Z,1011.68
2018-09-23T07:39:04.755Z,1011.77
2018-09-23T07:40:03.783Z,1011.81
2018-09-23T07:41:04.253Z,1011.84
2018-09-23T07:42:04.249Z,1011.82
2018-09-23T07:43:03.819Z,1011.78
2018-09-23T07:44:04.249Z,1011.78
2018-09-23T07:45:04.250Z,1011.77
2018-09-23T07:46:04.276Z,1011.75
2018-09-23T07:47:04.261Z,1011.70
2018-09-23T07:48:03.820Z,1011.67
2018-09-23T07:49:03.813Z,1011.59
2018-09-23T07:50:04.256Z,1011.65
2018-09-23T07:51:04.252Z,1011.70
2018-09-23T07:52:04.250Z,1011.70
2018-09-23T07:53:04.251Z,1011.69
2018-09-23T07:54:03.808Z,1011.71
2018-09-23T07:55:04.258Z,1011.73
2018-09-23T07:56:04.270Z,1011.71
2018-09-23T07:57:04.252Z,1011.67
2018-09-23T07:58:04.251Z,1011.64
2018-09-23T07:59:03.800Z,1011.62
2018-09-23T08:00:03.304Z,1011.58
2018-09-23T08:01:03.753Z,1011.55
2018-09-23T08:02:03.792Z,1011.55
2018-09-23T08:03:03.166Z,1011.57
2018-09-23T08:04:03.754Z,1011.57
2018-09-23T08:05:03.309Z,1011.49
2018-09-23T08:06:03.754Z,1011.43
2018-09-23T08:07:03.079Z,1011.44
2018-09-23T08:08:03.755Z,1011.46
2018-09-23T08:09:03.305Z,1011.47
2018-09-23T08:10:03.032Z,1011.49
2018-09-23T08:11:03.758Z,1011.45
2018-09-23T08:12:03.757Z,1011.44
2018-09-23T08:13:03.065Z,1011.36
2018-09-23T08:14:03.188Z,1011.32
2018-09-23T08:15:03.035Z,1011.27
2018-09-23T08:16:03.314Z,1011.29
2018-09-23T08:17:03.772Z,1011.31
2018-09-23T08:18:03.764Z,1011.37
2018-09-23T08:19:03.759Z,1011.39
2018-09-23T08:20:02.856Z,1011.41
2018-09-23T08:21:03.402Z,1011.37
2018-09-23T08:22:02.827Z,1011.24
2018-09-23T08:23:03.302Z,1011.19
2018-09-23T08:24:03.266Z,1011.19
2018-09-23T08:25:02.825Z,1011.21
2018-09-23T08:26:02.868Z,1011.29
2018-09-23T08:27:03.264Z,1011.26
2018-09-23T08:28:03.259Z,1011.24
2018-09-23T08:29:03.267Z,1011.17
2018-09-23T08:30:02.488Z,1011.14
2018-09-23T08:31:02.518Z,1011.12
2018-09-23T08:32:02.443Z,1011.12
2018-09-23T08:33:03.307Z,1011.13
2018-09-23T08:34:03.270Z,1011.15
2018-09-23T08:35:03.303Z,1011.13
2018-09-23T08:36:03.722Z,1011.12
2018-09-23T08:37:03.267Z,1011.10
2018-09-23T08:38:03.281Z,1011.13
2018-09-23T08:39:03.296Z,1011.13
2018-09-23T08:40:02.815Z,1011.17
2018-09-23T08:41:02.320Z,1011.17
2018-09-23T08:42:02.781Z,1011.16
2018-09-23T08:43:02.816Z,1011.15
2018-09-23T08:44:02.767Z,1011.12
2018-09-23T08:45:02.131Z,1011.14
2018-09-23T08:46:02.318Z,1011.13
2018-09-23T08:47:02.075Z,1011.14
2018-09-23T08:48:02.846Z,1011.14
2018-09-23T08:49:02.063Z,1011.18
2018-09-23T08:50:02.769Z,1011.19
2018-09-23T08:51:02.795Z,1011.16
2018-09-23T08:52:02.777Z,1011.18
2018-09-23T08:53:02.768Z,1011.20
2018-09-23T08:54:02.322Z,1011.19
2018-09-23T08:55:02.769Z,1011.21
2018-09-23T08:56:02.771Z,1011.19
2018-09-23T08:57:01.836Z,1011.19
2018-09-23T08:58:02.330Z,1011.10
2018-09-23T08:59:02.770Z,1011.04
2018-09-23T09:00:01.839Z,1011.04
2018-09-23T09:01:02.305Z,1010.99
2018-09-23T09:02:03.175Z,1010.92
2018-09-23T09:03:02.270Z,1010.87
2018-09-23T09:04:01.817Z,1010.85
2018-09-23T09:05:02.272Z,1010.86
2018-09-23T09:06:01.625Z,1010.84
2018-09-23T09:07:01.599Z,1010.82
2018-09-23T09:08:01.576Z,1010.77
2018-09-23T09:09:01.827Z,1010.69
2018-09-23T09:10:01.573Z,1010.64
2018-09-23T09:11:02.330Z,1010.64
2018-09-23T09:12:02.271Z,1010.67
2018-09-23T09:13:02.273Z,1010.72
2018-09-23T09:14:07.690Z,1010.76
2018-09-23T09:15:02.292Z,1010.75
2018-09-23T09:16:02.273Z,1010.76
2018-09-23T09:17:01.370Z,1010.72
2018-09-23T09:18:02.275Z,1010.67
2018-09-23T09:19:01.832Z,1010.66
2018-09-23T09:20:02.275Z,1010.59
2018-09-23T09:21:01.331Z,1010.52
2018-09-23T09:22:01.773Z,1010.54
2018-09-23T09:23:01.227Z,1010.50
2018-09-23T09:24:01.257Z,1010.50
2018-09-23T09:25:01.788Z,1010.52
2018-09-23T09:26:01.329Z,1010.50
2018-09-23T09:27:01.799Z,1010.51
2018-09-23T09:28:01.793Z,1010.53
2018-09-23T09:29:01.342Z,1010.56
2018-09-23T09:30:01.784Z,1010.51
2018-09-23T09:31:01.390Z,1010.50
2018-09-23T09:32:01.783Z,1010.47
2018-09-23T09:33:01.778Z,1010.52
2018-09-23T09:34:01.777Z,1010.55
2018-09-23T09:35:01.776Z,1010.62
2018-09-23T09:36:01.339Z,1010.61
2018-09-23T09:37:01.793Z,1010.62
2018-09-23T09:38:01.777Z,1010.60
2018-09-23T09:39:00.934Z,1010.61
2018-09-23T09:40:00.900Z,1010.61
2018-09-23T09:41:00.826Z,1010.64
2018-09-23T09:42:01.777Z,1010.63
2018-09-23T09:43:00.779Z,1010.66
2018-09-23T09:44:01.346Z,1010.65
2018-09-23T09:45:00.832Z,1010.65
2018-09-23T09:46:01.286Z,1010.67
2018-09-23T09:47:01.280Z,1010.66
2018-09-23T09:48:00.835Z,1010.65
2018-09-23T09:49:01.280Z,1010.64
2018-09-23T09:50:01.286Z,1010.67
2018-09-23T09:51:00.834Z,1010.72
2018-09-23T09:52:01.282Z,1010.79
2018-09-23T09:53:00.541Z,1010.84
2018-09-23T09:54:01.290Z,1010.79
2018-09-23T09:55:01.281Z,1010.74
2018-09-23T09:56:00.833Z,1010.63
2018-09-23T09:57:00.840Z,1010.62
2018-09-23T09:58:00.451Z,1010.60
2018-09-23T09:59:01.285Z,1010.55
2018-09-23T10:00:01.319Z,1010.57
2018-09-23T10:01:01.345Z,1010.55
2018-09-23T10:02:01.289Z,1010.49
2018-09-23T10:03:01.287Z,1010.44
2018-09-23T10:04:00.808Z,1010.32
2018-09-23T10:05:00.800Z,1010.26
2018-09-23T10:06:00.338Z,1010.21
2018-09-23T10:07:00.786Z,1010.22
2018-09-23T10:08:00.192Z,1010.26
2018-09-23T10:09:00.336Z,1010.31
2018-09-23T10:10:00.787Z,1010.27
2018-09-23T10:11:00.786Z,1010.24
2018-09-23T10:12:00.787Z,1010.15
2018-09-23T10:13:00.348Z,1010.16
2018-09-23T10:14:00.344Z,1010.08
2018-09-23T10:15:00.032Z,1010.06
2018-09-23T10:16:00.793Z,1010.07
2018-09-23T10:17:00.791Z,1010.09
2018-09-23T10:17:59.986Z,1010.09
2018-09-23T10:19:00.343Z,1010.07
2018-09-23T10:20:00.788Z,1010.03
2018-09-23T10:21:00.788Z,1010.01
2018-09-23T10:22:00.788Z,1009.99
2018-09-23T10:22:59.984Z,1009.99
2018-09-23T10:24:00.872Z,1009.93
2018-09-23T10:25:00.354Z,1009.92
2018-09-23T10:26:00.294Z,1009.89
2018-09-23T10:27:00.291Z,1009.85
2018-09-23T10:28:00.290Z,1009.85
2018-09-23T10:29:00.291Z,1009.83
2018-09-23T10:29:59.847Z,1009.85
2018-09-23T10:30:59.694Z,1009.78
2018-09-23T10:32:00.292Z,1009.79
2018-09-23T10:33:00.294Z,1009.81
2018-09-23T10:34:00.291Z,1009.78
2018-09-23T10:34:59.849Z,1009.75
2018-09-23T10:36:00.347Z,1009.77
2018-09-23T10:37:00.295Z,1009.75
2018-09-23T10:37:59.576Z,1009.72
2018-09-23T10:39:00.295Z,1009.59
2018-09-23T10:40:00.294Z,1009.51
2018-09-23T10:41:00.293Z,1009.41
2018-09-23T10:42:00.297Z,1009.32
2018-09-23T10:42:59.843Z,1009.28
2018-09-23T10:44:00.293Z,1009.27
2018-09-23T10:44:59.408Z,1009.26
2018-09-23T10:46:00.392Z,1009.26
2018-09-23T10:46:59.799Z,1009.30
2018-09-23T10:47:59.798Z,1009.30
2018-09-23T10:48:59.294Z,1009.28
2018-09-23T10:49:59.801Z,1009.28
2018-09-23T10:50:59.801Z,1009.32
2018-09-23T10:51:59.797Z,1009.31
2018-09-23T10:52:59.348Z,1009.30
2018-09-23T10:53:59.366Z,1009.31
2018-09-23T10:54:59.796Z,1009.26
2018-09-23T10:55:59.798Z,1009.22
2018-09-23T10:56:59.799Z,1009.20
2018-09-23T10:57:59.801Z,1009.24
2018-09-23T10:58:59.365Z,1009.25
2018-09-23T10:59:59.000Z,1009.23
2018-09-23T11:00:59.799Z,1009.17
2018-09-23T11:01:59.804Z,1009.13
2018-09-23T11:02:59.807Z,1009.12
2018-09-23T11:03:59.450Z,1009.16
2018-09-23T11:04:59.799Z,1009.14
2018-09-23T11:05:59.803Z,1009.14
2018-09-23T11:06:59.803Z,1009.10
2018-09-23T11:07:58.814Z,1009.13
2018-09-23T11:08:58.856Z,1009.13
2018-09-23T11:09:58.769Z,1009.10
2018-09-23T11:10:59.300Z,1009.14
2018-09-23T11:11:58.726Z,1009.13
2018-09-23T11:12:59.310Z,1009.10
2018-09-23T11:13:58.857Z,1009.08
2018-09-23T11:14:59.300Z,1009.04
2018-09-23T11:15:58.857Z,1009.04
2018-09-23T11:16:59.307Z,1009.03
2018-09-23T11:17:59.319Z,1009.05
2018-09-23T11:18:59.307Z,1008.92
2018-09-23T11:19:58.851Z,1008.82
2018-09-23T11:20:59.311Z,1008.79
2018-09-23T11:21:59.366Z,1008.78
2018-09-23T11:22:58.460Z,1008.76
2018-09-23T11:23:59.306Z,1008.73
2018-09-23T11:24:58.861Z,1008.68
2018-09-23T11:25:58.869Z,1008.64
2018-09-23T11:26:59.306Z,1008.62
2018-09-23T11:27:59.312Z,1008.52
2018-09-23T11:28:59.306Z,1008.43
2018-09-23T11:29:58.805Z,1008.43
2018-09-23T11:30:58.361Z,1008.45
2018-09-23T11:31:58.808Z,1008.46
2018-09-23T11:32:58.806Z,1008.46
2018-09-23T11:33:58.806Z,1008.45
2018-09-23T11:34:58.807Z,1008.43
2018-09-23T11:35:58.361Z,1008.38
2018-09-23T11:36:58.811Z,1008.34
2018-09-23T11:37:58.095Z,1008.29
2018-09-23T11:38:58.809Z,1008.21
2018-09-23T11:39:58.106Z,1008.28
2018-09-23T11:40:58.021Z,1008.25
2018-09-23T11:41:58.378Z,1008.25
2018-09-23T11:42:58.848Z,1008.29
2018-09-23T11:43:58.811Z,1008.30
2018-09-23T11:44:58.808Z,1008.30
2018-09-23T11:45:58.811Z,1008.29
2018-09-23T11:46:58.365Z,1008.23
2018-09-23T11:47:58.812Z,1008.20
2018-09-23T11:48:58.810Z,1008.19
2018-09-23T11:49:58.311Z,1008.16
2018-09-23T11:50:58.327Z,1008.11
2018-09-23T11:51:57.866Z,1008.08
2018-09-23T11:52:58.312Z,1008.07
2018-09-23T11:53:58.359Z,1008.05
2018-09-23T11:54:58.313Z,1008.03
2018-09-23T11:55:58.313Z,1007.98
2018-09-23T11:56:57.867Z,1007.96
2018-09-23T11:57:57.603Z,1007.93
2018-09-23T11:58:58.340Z,1007.92
2018-09-23T11:59:57.866Z,1007.91
2018-09-23T12:00:58.313Z,1007.89
2018-09-23T12:01:57.869Z,1007.90
2018-09-23T12:02:58.313Z,1007.91
2018-09-23T12:03:58.313Z,1007.96
2018-09-23T12:04:58.374Z,1007.96